createdAt,value
2017-05-31T00:01:08.825Z,19
2017-05-31T00:02:21.376Z,18.97
2017-05-31T00:03:33.248Z,18.97
2017-05-31T00:04:45.795Z,18.94
2017-05-31T00:05:58.330Z,18.98
2017-05-31T00:07:10.878Z,18.94
2017-05-31T00:08:22.500Z,18.92
2017-05-31T00:09:34.746Z,18.91
2017-05-31T00:10:46.976Z,18.91
2017-05-31T00:11:59.513Z,18.92
2017-05-31T00:13:12.041Z,18.96
2017-05-31T00:14:24.605Z,18.92
2017-05-31T00:15:36.833Z,18.92
2017-05-31T00:16:49.071Z,18.88
2017-05-31T00:18:01.321Z,18.89
2017-05-31T00:19:13.253Z,18.83
2017-05-31T00:20:25.809Z,18.85
2017-05-31T00:21:38.034Z,18.89
2017-05-31T00:22:49.960Z,18.92
2017-05-31T00:24:02.222Z,18.92
2017-05-31T00:25:14.750Z,18.85
2017-05-31T00:26:27.308Z,18.83
2017-05-31T00:27:39.560Z,18.88
2017-05-31T00:28:51.506Z,18.81
2017-05-31T00:30:04.009Z,18.82
2017-05-31T00:31:16.230Z,18.81
2017-05-31T00:32:28.194Z,18.85
2017-05-31T00:33:40.447Z,18.86
2017-05-31T00:34:53.011Z,18.78
2017-05-31T00:36:05.830Z,18.83
2017-05-31T00:37:18.135Z,18.85
2017-05-31T00:38:30.680Z,18.85
2017-05-31T00:39:42.944Z,18.78
2017-05-31T00:40:55.493Z,18.76
2017-05-31T00:42:07.425Z,18.82
2017-05-31T00:43:19.964Z,18.83
2017-05-31T00:44:32.211Z,18.73
2017-05-31T00:45:44.447Z,18.63
2017-05-31T00:46:56.924Z,18.64
2017-05-31T00:48:08.886Z,18.58
2017-05-31T00:49:20.837Z,18.64
2017-05-31T00:50:33.408Z,18.58
2017-05-31T00:51:45.954Z,18.48
2017-05-31T00:52:57.908Z,18.58
2017-05-31T00:54:10.442Z,18.48
2017-05-31T00:55:22.371Z,18.51
2017-05-31T00:56:34.644Z,18.48
2017-05-31T00:57:47.441Z,18.49
2017-05-31T00:58:59.978Z,18.42
2017-05-31T01:00:11.912Z,18.43
2017-05-31T01:01:24.454Z,18.48
2017-05-31T01:02:36.690Z,18.45
2017-05-31T01:03:49.238Z,18.48
2017-05-31T01:05:01.163Z,18.41
2017-05-31T01:06:13.359Z,18.41
2017-05-31T01:07:25.580Z,18.37
2017-05-31T01:08:38.196Z,18.34
2017-05-31T01:09:50.413Z,18.34
2017-05-31T01:11:02.959Z,18.28
2017-05-31T01:12:15.512Z,18.39
2017-05-31T01:13:28.055Z,18.39
2017-05-31T01:14:40.309Z,18.34
2017-05-31T01:15:52.543Z,18.24
2017-05-31T01:17:05.093Z,18.16
2017-05-31T01:18:17.645Z,18.16
2017-05-31T01:19:30.480Z,18.16
2017-05-31T01:20:42.687Z,18
2017-05-31T01:21:54.922Z,18.03
2017-05-31T01:23:07.469Z,17.97
2017-05-31T01:24:20.001Z,17.95
2017-05-31T01:25:32.548Z,17.95
2017-05-31T01:26:45.081Z,17.9
2017-05-31T01:27:57.638Z,17.84
2017-05-31T01:29:10.180Z,17.84
2017-05-31T01:30:22.729Z,17.82
2017-05-31T01:31:34.952Z,17.75
2017-05-31T01:32:47.492Z,17.68
2017-05-31T01:33:59.719Z,17.63
2017-05-31T01:35:11.956Z,17.65
2017-05-31T01:36:24.208Z,17.56
2017-05-31T01:37:36.148Z,17.63
2017-05-31T01:38:48.701Z,17.54
2017-05-31T01:40:00.940Z,17.5
2017-05-31T01:41:13.485Z,17.53
2017-05-31T01:42:26.036Z,17.56
2017-05-31T01:43:38.557Z,17.49
2017-05-31T01:44:51.080Z,17.41
2017-05-31T01:46:03.599Z,17.44
2017-05-31T01:47:16.090Z,17.34
2017-05-31T01:48:28.316Z,17.34
2017-05-31T01:49:40.854Z,17.31
2017-05-31T01:50:53.403Z,17.22
2017-05-31T01:52:05.608Z,17.22
2017-05-31T01:53:18.153Z,17.22
2017-05-31T01:54:30.395Z,17.14
2017-05-31T01:55:42.919Z,17.19
2017-05-31T01:56:54.832Z,17.23
2017-05-31T01:58:07.082Z,17.2
2017-05-31T01:59:19.606Z,17.22
2017-05-31T02:00:32.167Z,17.13
2017-05-31T02:01:44.714Z,17.14
2017-05-31T02:02:57.559Z,17.13
2017-05-31T02:04:10.104Z,17.12
2017-05-31T02:05:22.355Z,17.16
2017-05-31T02:06:34.882Z,17.2
2017-05-31T02:07:47.403Z,17.16
2017-05-31T02:08:59.947Z,17.17
2017-05-31T02:10:12.192Z,17.24
2017-05-31T02:11:24.705Z,17.19
2017-05-31T02:12:37.234Z,17.1
2017-05-31T02:13:49.458Z,17.13
2017-05-31T02:15:01.677Z,17.12
2017-05-31T02:16:13.621Z,17.14
2017-05-31T02:17:25.559Z,17.17
2017-05-31T02:18:37.809Z,17.1
2017-05-31T02:19:50.063Z,17.12
2017-05-31T02:21:02.584Z,17.14
2017-05-31T02:22:14.847Z,17.07
2017-05-31T02:23:27.375Z,17.12
2017-05-31T02:24:40.219Z,17.13
2017-05-31T02:25:52.759Z,17.12
2017-05-31T02:27:05.284Z,17.04
2017-05-31T02:28:17.508Z,17.02
2017-05-31T02:29:30.054Z,17.04
2017-05-31T02:30:42.622Z,17.07
2017-05-31T02:31:55.172Z,17.02
2017-05-31T02:33:07.409Z,16.99
2017-05-31T02:34:19.967Z,17.05
2017-05-31T02:35:31.924Z,16.99
2017-05-31T02:36:44.446Z,17.04
2017-05-31T02:37:56.950Z,17.01
2017-05-31T02:39:09.169Z,17.04
2017-05-31T02:40:21.369Z,17.09
2017-05-31T02:41:33.561Z,17.04
2017-05-31T02:42:46.102Z,17.09
2017-05-31T02:43:58.622Z,17.07
2017-05-31T02:45:10.854Z,17.13
2017-05-31T02:46:23.386Z,16.99
2017-05-31T02:47:35.911Z,17.05
2017-05-31T02:48:48.110Z,17.1
2017-05-31T02:50:00.332Z,17.05
2017-05-31T02:51:12.896Z,17.14
2017-05-31T02:52:25.428Z,17.05
2017-05-31T02:53:37.648Z,17.14
2017-05-31T02:54:50.165Z,17.1
2017-05-31T02:56:02.407Z,17.14
2017-05-31T02:57:14.933Z,17.1
2017-05-31T02:58:26.880Z,17.14
2017-05-31T02:59:39.120Z,17.09
2017-05-31T03:00:51.662Z,17.12
2017-05-31T03:02:04.208Z,17.12
2017-05-31T03:03:16.156Z,17.13
2017-05-31T03:04:28.708Z,17.07
2017-05-31T03:05:41.228Z,17.09
2017-05-31T03:06:53.750Z,17.1
2017-05-31T03:08:06.291Z,17.14
2017-05-31T03:09:18.219Z,17.19
2017-05-31T03:10:30.740Z,17.14
2017-05-31T03:11:42.979Z,17.2
2017-05-31T03:12:55.529Z,17.23
2017-05-31T03:14:07.779Z,17.23
2017-05-31T03:15:20.313Z,17.27
2017-05-31T03:16:32.269Z,17.23
2017-05-31T03:17:44.784Z,17.27
2017-05-31T03:18:57.552Z,17.28
2017-05-31T03:20:10.080Z,17.27
2017-05-31T03:21:22.601Z,17.2
2017-05-31T03:22:35.114Z,17.28
2017-05-31T03:23:47.700Z,17.27
2017-05-31T03:25:00.238Z,17.23
2017-05-31T03:26:12.462Z,17.2
2017-05-31T03:27:24.400Z,17.19
2017-05-31T03:28:36.922Z,17.14
2017-05-31T03:29:49.468Z,17.14
2017-05-31T03:31:01.719Z,17.09
2017-05-31T03:32:14.238Z,17.1
2017-05-31T03:33:26.764Z,17.13
2017-05-31T03:34:38.706Z,17.09
2017-05-31T03:35:51.230Z,17.1
2017-05-31T03:37:03.450Z,17.04
2017-05-31T03:38:15.368Z,17.14
2017-05-31T03:39:27.583Z,17.13
2017-05-31T03:40:40.160Z,17.13
2017-05-31T03:41:52.682Z,17.1
2017-05-31T03:43:05.198Z,17.04
2017-05-31T03:44:17.698Z,17.1
2017-05-31T03:45:30.243Z,17.19
2017-05-31T03:46:41.885Z,17.14
2017-05-31T03:47:54.440Z,17.19
2017-05-31T03:49:06.961Z,17.13
2017-05-31T03:50:19.198Z,17.2
2017-05-31T03:51:31.699Z,17.16
2017-05-31T03:52:44.223Z,17.23
2017-05-31T03:53:56.486Z,17.31
2017-05-31T03:55:08.711Z,17.19
2017-05-31T03:56:20.932Z,17.28
2017-05-31T03:57:33.462Z,17.24
2017-05-31T03:58:45.720Z,17.28
2017-05-31T03:59:57.940Z,17.28
2017-05-31T04:01:10.193Z,17.28
2017-05-31T04:02:22.964Z,17.27
2017-05-31T04:03:34.882Z,17.28
2017-05-31T04:04:47.397Z,17.34
2017-05-31T04:05:59.924Z,17.35
2017-05-31T04:07:12.429Z,17.34
2017-05-31T04:08:24.388Z,17.39
2017-05-31T04:09:36.619Z,17.44
2017-05-31T04:10:48.854Z,17.44
2017-05-31T04:12:01.080Z,17.44
2017-05-31T04:13:13.603Z,17.44
2017-05-31T04:14:26.174Z,17.37
2017-05-31T04:15:37.520Z,17.39
2017-05-31T04:16:50.056Z,17.38
2017-05-31T04:18:02.626Z,17.42
2017-05-31T04:19:14.859Z,17.44
2017-05-31T04:20:27.416Z,17.53
2017-05-31T04:21:39.666Z,17.52
2017-05-31T04:22:52.196Z,17.5
2017-05-31T04:24:04.729Z,17.59
2017-05-31T04:25:16.052Z,17.59
2017-05-31T04:26:28.576Z,17.57
2017-05-31T04:27:41.103Z,17.56
2017-05-31T04:28:53.314Z,17.47
2017-05-31T04:30:05.535Z,17.54
2017-05-31T04:31:18.086Z,17.52
2017-05-31T04:32:30.655Z,17.6
2017-05-31T04:33:42.883Z,17.65
2017-05-31T04:34:55.097Z,17.59
2017-05-31T04:36:07.647Z,17.65
2017-05-31T04:37:19.860Z,17.56
2017-05-31T04:38:32.113Z,17.57
2017-05-31T04:39:44.340Z,17.66
2017-05-31T04:40:56.922Z,17.6
2017-05-31T04:42:09.181Z,17.63
2017-05-31T04:43:21.723Z,17.73
2017-05-31T04:44:34.236Z,17.72
2017-05-31T04:45:47.089Z,17.75
2017-05-31T04:46:59.638Z,17.86
2017-05-31T04:48:12.178Z,17.84
2017-05-31T04:49:24.730Z,17.87
2017-05-31T04:50:37.277Z,17.93
2017-05-31T04:51:49.823Z,17.97
2017-05-31T04:53:02.137Z,17.88
2017-05-31T04:54:14.681Z,17.98
2017-05-31T04:55:26.900Z,17.95
2017-05-31T04:56:38.828Z,18.03
2017-05-31T04:57:51.352Z,18.06
2017-05-31T04:59:03.548Z,17.97
2017-05-31T05:00:16.096Z,18.06
2017-05-31T05:01:28.654Z,18.12
2017-05-31T05:02:40.877Z,18.15
2017-05-31T05:03:53.101Z,18.11
2017-05-31T05:05:05.343Z,18.12
2017-05-31T05:06:17.591Z,18.15
2017-05-31T05:07:29.821Z,18.18
2017-05-31T05:08:42.370Z,18.15
2017-05-31T05:09:54.925Z,18.15
2017-05-31T05:11:07.454Z,18.23
2017-05-31T05:12:19.993Z,18.24
2017-05-31T05:13:32.541Z,18.33
2017-05-31T05:14:45.094Z,18.28
2017-05-31T05:15:57.333Z,18.27
2017-05-31T05:17:09.859Z,18.27
2017-05-31T05:18:22.421Z,18.28
2017-05-31T05:19:34.967Z,18.36
2017-05-31T05:20:47.497Z,18.45
2017-05-31T05:22:00.020Z,18.42
2017-05-31T05:23:12.580Z,18.53
2017-05-31T05:24:25.076Z,18.6
2017-05-31T05:25:37.626Z,18.66
2017-05-31T05:26:50.168Z,18.71
2017-05-31T05:28:02.675Z,18.88
2017-05-31T05:29:15.221Z,18.82
2017-05-31T05:30:27.784Z,18.96
2017-05-31T05:31:40.030Z,19.08
2017-05-31T05:32:52.552Z,19.09
2017-05-31T05:34:05.098Z,19.09
2017-05-31T05:35:17.331Z,19.26
2017-05-31T05:36:29.886Z,19.26
2017-05-31T05:37:42.118Z,19.3
2017-05-31T05:38:54.660Z,19.35
2017-05-31T05:40:07.499Z,19.35
2017-05-31T05:41:19.473Z,19.38
2017-05-31T05:42:32.018Z,19.26
2017-05-31T05:43:44.548Z,19.3
2017-05-31T05:44:57.085Z,19.29
2017-05-31T05:46:09.613Z,19.24
2017-05-31T05:47:22.148Z,19.17
2017-05-31T05:48:34.095Z,19.16
2017-05-31T05:49:46.647Z,19.16
2017-05-31T05:50:58.898Z,19.22
2017-05-31T05:52:11.460Z,19.16
2017-05-31T05:53:23.413Z,19.12
2017-05-31T05:54:35.661Z,19.26
2017-05-31T05:55:48.195Z,19.2
2017-05-31T05:57:00.720Z,19.24
2017-05-31T05:58:12.355Z,19.22
2017-05-31T05:59:24.897Z,19.16
2017-05-31T06:00:37.168Z,19.16
2017-05-31T06:01:49.975Z,19.11
2017-05-31T06:03:02.496Z,19.09
2017-05-31T06:04:15.042Z,19.09
2017-05-31T06:05:27.315Z,19.07
2017-05-31T06:06:39.861Z,19.08
2017-05-31T06:07:52.104Z,19.11
2017-05-31T06:09:04.626Z,19.09
2017-05-31T06:10:16.876Z,19.09
2017-05-31T06:11:29.405Z,19.09
2017-05-31T06:12:41.638Z,19.12
2017-05-31T06:13:54.167Z,19.22
2017-05-31T06:15:06.405Z,19.29
2017-05-31T06:16:18.959Z,19.24
2017-05-31T06:17:31.211Z,19.47
2017-05-31T06:18:43.466Z,19.48
2017-05-31T06:19:55.425Z,19.57
2017-05-31T06:21:07.734Z,19.66
2017-05-31T06:22:19.992Z,19.71
2017-05-31T06:23:32.550Z,19.77
2017-05-31T06:24:44.500Z,19.89
2017-05-31T06:25:56.772Z,20.07
2017-05-31T06:27:09.325Z,20.08
2017-05-31T06:28:21.595Z,20.26
2017-05-31T06:29:34.144Z,20.27
2017-05-31T06:30:46.677Z,20.36
2017-05-31T06:31:59.180Z,20.4
2017-05-31T06:33:11.722Z,20.58
2017-05-31T06:34:24.276Z,20.56
2017-05-31T06:35:36.815Z,20.59
2017-05-31T06:36:49.316Z,20.63
2017-05-31T06:38:01.852Z,20.67
2017-05-31T06:39:14.373Z,20.66
2017-05-31T06:40:27.243Z,20.82
2017-05-31T06:41:39.497Z,21
2017-05-31T06:42:51.771Z,20.92
2017-05-31T06:44:04.040Z,21.13
2017-05-31T06:45:16.306Z,21.26
2017-05-31T06:46:28.556Z,21.29
2017-05-31T06:47:40.784Z,21.33
2017-05-31T06:48:53.325Z,21.43
2017-05-31T06:50:05.590Z,21.48
2017-05-31T06:51:17.836Z,21.6
2017-05-31T06:52:30.078Z,21.63
2017-05-31T06:53:42.606Z,21.81
2017-05-31T06:54:54.879Z,21.94
2017-05-31T06:56:07.398Z,22.08
2017-05-31T06:57:19.945Z,22.19
2017-05-31T06:58:32.190Z,22.26
2017-05-31T06:59:44.736Z,22.38
2017-05-31T07:00:57.275Z,22.56
2017-05-31T07:02:09.803Z,22.7
2017-05-31T07:03:22.042Z,22.89
2017-05-31T07:04:34.271Z,23.13
2017-05-31T07:05:46.515Z,23.23
2017-05-31T07:06:58.736Z,23.45
2017-05-31T07:08:10.658Z,23.59
2017-05-31T07:09:22.899Z,23.74
2017-05-31T07:10:35.499Z,23.96
2017-05-31T07:11:48.039Z,24.14
2017-05-31T07:13:00.568Z,24.21
2017-05-31T07:14:12.809Z,24.26
2017-05-31T07:15:25.380Z,24.29
2017-05-31T07:16:37.603Z,24.43
2017-05-31T07:17:50.392Z,24.43
2017-05-31T07:19:02.037Z,24.36
2017-05-31T07:20:13.972Z,24.25
2017-05-31T07:21:25.905Z,24.11
2017-05-31T07:22:38.459Z,23.96
2017-05-31T07:23:51.022Z,23.71
2017-05-31T07:25:03.576Z,23.63
2017-05-31T07:26:15.523Z,23.37
2017-05-31T07:27:28.018Z,23.21
2017-05-31T07:28:40.242Z,23.08
2017-05-31T07:29:52.763Z,22.95
2017-05-31T07:31:05.322Z,22.77
2017-05-31T07:32:17.244Z,22.68
2017-05-31T07:33:29.502Z,22.62
2017-05-31T07:34:42.017Z,22.59
2017-05-31T07:35:54.249Z,22.44
2017-05-31T07:37:06.510Z,22.38
2017-05-31T07:38:18.476Z,22.26
2017-05-31T07:39:30.952Z,22.23
2017-05-31T07:40:43.477Z,22.08
2017-05-31T07:41:56.048Z,22.22
2017-05-31T07:43:08.589Z,22.3
2017-05-31T07:44:20.538Z,22.31
2017-05-31T07:45:33.099Z,22.33
2017-05-31T07:46:45.645Z,22.21
2017-05-31T07:47:57.866Z,22.18
2017-05-31T07:49:10.415Z,22.15
2017-05-31T07:50:22.961Z,22.06
2017-05-31T07:51:35.515Z,22.04
2017-05-31T07:52:47.761Z,22.01
2017-05-31T07:54:00.307Z,22.1
2017-05-31T07:55:12.568Z,22.26
2017-05-31T07:56:24.491Z,22.37
2017-05-31T07:57:37.036Z,22.43
2017-05-31T07:58:49.568Z,22.47
2017-05-31T08:00:02.174Z,22.56
2017-05-31T08:01:14.707Z,22.77
2017-05-31T08:02:26.979Z,22.89
2017-05-31T08:03:39.215Z,23.08
2017-05-31T08:04:51.142Z,23.25
2017-05-31T08:06:03.385Z,23.32
2017-05-31T08:07:15.060Z,23.62
2017-05-31T08:08:27.354Z,23.81
2017-05-31T08:09:39.592Z,24.1
2017-05-31T08:10:51.847Z,24.29
2017-05-31T08:12:04.046Z,24.44
2017-05-31T08:13:15.987Z,24.69
2017-05-31T08:14:28.210Z,24.71
2017-05-31T08:15:40.458Z,24.93
2017-05-31T08:16:52.721Z,24.93
2017-05-31T08:18:05.272Z,24.99
2017-05-31T08:19:17.213Z,24.94
2017-05-31T08:20:29.767Z,24.85
2017-05-31T08:21:42.309Z,24.74
2017-05-31T08:22:54.823Z,24.71
2017-05-31T08:24:07.072Z,24.68
2017-05-31T08:25:19.615Z,24.75
2017-05-31T08:26:31.893Z,24.56
2017-05-31T08:27:44.440Z,24.53
2017-05-31T08:28:56.655Z,24.38
2017-05-31T08:30:08.009Z,24.46
2017-05-31T08:31:20.556Z,24.55
2017-05-31T08:32:33.114Z,24.68
2017-05-31T08:33:45.396Z,24.84
2017-05-31T08:34:57.344Z,24.96
2017-05-31T08:36:09.602Z,25.24
2017-05-31T08:37:21.873Z,25.54
2017-05-31T08:38:34.123Z,25.7
2017-05-31T08:39:46.701Z,25.73
2017-05-31T08:40:59.236Z,25.78
2017-05-31T08:42:11.786Z,25.7
2017-05-31T08:43:23.736Z,25.73
2017-05-31T08:44:35.660Z,25.61
2017-05-31T08:45:47.949Z,25.52
2017-05-31T08:47:00.198Z,25.52
2017-05-31T08:48:12.460Z,25.4
2017-05-31T08:49:24.407Z,25.43
2017-05-31T08:50:36.358Z,25.49
2017-05-31T08:51:48.302Z,25.54
2017-05-31T08:53:00.249Z,25.62
2017-05-31T08:54:12.801Z,25.54
2017-05-31T08:55:24.739Z,25.66
2017-05-31T08:56:36.984Z,25.78
2017-05-31T08:57:49.579Z,25.88
2017-05-31T08:59:01.832Z,25.95
2017-05-31T09:00:14.097Z,26.06
2017-05-31T09:01:26.053Z,26.27
2017-05-31T09:02:38.316Z,26.41
2017-05-31T09:03:50.872Z,26.56
2017-05-31T09:05:03.440Z,26.71
2017-05-31T09:06:15.710Z,26.97
2017-05-31T09:07:27.975Z,27.11
2017-05-31T09:08:40.217Z,27.1
2017-05-31T09:09:52.464Z,27.04
2017-05-31T09:11:04.991Z,26.91
2017-05-31T09:12:17.237Z,26.79
2017-05-31T09:13:29.504Z,26.6
2017-05-31T09:14:42.056Z,26.48
2017-05-31T09:15:54.319Z,26.29
2017-05-31T09:17:06.593Z,26.07
2017-05-31T09:18:18.846Z,25.99
2017-05-31T09:19:31.409Z,25.83
2017-05-31T09:20:43.688Z,25.85
2017-05-31T09:21:55.947Z,25.74
2017-05-31T09:23:08.203Z,25.74
2017-05-31T09:24:20.451Z,25.71
2017-05-31T09:25:32.696Z,25.68
2017-05-31T09:26:44.696Z,25.74
2017-05-31T09:27:56.955Z,25.71
2017-05-31T09:29:09.184Z,25.62
2017-05-31T09:30:21.448Z,25.62
2017-05-31T09:31:33.722Z,25.54
2017-05-31T09:32:46.268Z,25.46
2017-05-31T09:33:58.514Z,25.39
2017-05-31T09:35:10.485Z,25.26
2017-05-31T09:36:23.049Z,25.18
2017-05-31T09:37:35.594Z,25.07
2017-05-31T09:38:47.876Z,25.04
2017-05-31T09:40:00.147Z,25.11
2017-05-31T09:41:12.085Z,24.94
2017-05-31T09:42:23.736Z,24.92
2017-05-31T09:43:35.676Z,24.97
2017-05-31T09:44:47.948Z,25.15
2017-05-31T09:46:00.181Z,25.22
2017-05-31T09:47:12.750Z,25.33
2017-05-31T09:48:25.011Z,25.58
2017-05-31T09:49:37.562Z,25.74
2017-05-31T09:50:50.083Z,25.74
2017-05-31T09:52:02.320Z,25.83
2017-05-31T09:53:14.273Z,25.85
2017-05-31T09:54:26.824Z,25.83
2017-05-31T09:55:39.061Z,25.77
2017-05-31T09:56:51.705Z,25.52
2017-05-31T09:58:03.361Z,25.33
2017-05-31T09:59:15.625Z,25.18
2017-05-31T10:00:28.167Z,25.03
2017-05-31T10:01:40.701Z,25.16
2017-05-31T10:02:53.265Z,25.34
2017-05-31T10:04:05.808Z,25.51
2017-05-31T10:05:18.051Z,25.68
2017-05-31T10:06:30.300Z,25.78
2017-05-31T10:07:42.852Z,25.92
2017-05-31T10:08:54.841Z,25.88
2017-05-31T10:10:07.096Z,25.92
2017-05-31T10:11:19.366Z,25.88
2017-05-31T10:12:31.637Z,25.85
2017-05-31T10:13:43.875Z,25.98
2017-05-31T10:14:56.405Z,25.95
2017-05-31T10:16:08.967Z,25.93
2017-05-31T10:17:21.512Z,25.86
2017-05-31T10:18:34.041Z,25.76
2017-05-31T10:19:46.288Z,25.83
2017-05-31T10:20:58.851Z,25.92
2017-05-31T10:22:11.369Z,26.08
2017-05-31T10:23:23.629Z,26.34
2017-05-31T10:24:35.889Z,26.61
2017-05-31T10:25:48.431Z,26.76
2017-05-31T10:27:00.684Z,27.18
2017-05-31T10:28:12.922Z,27.52
2017-05-31T10:29:25.205Z,27.64
2017-05-31T10:30:37.750Z,27.79
2017-05-31T10:31:49.710Z,27.71
2017-05-31T10:33:01.947Z,27.73
2017-05-31T10:34:14.503Z,27.72
2017-05-31T10:35:27.072Z,27.75
2017-05-31T10:36:39.326Z,27.91
2017-05-31T10:37:51.594Z,27.95
2017-05-31T10:39:03.839Z,28.01
2017-05-31T10:40:16.110Z,28
2017-05-31T10:41:28.360Z,27.93
2017-05-31T10:42:40.899Z,27.86
2017-05-31T10:43:53.451Z,27.64
2017-05-31T10:45:05.677Z,27.81
2017-05-31T10:46:17.919Z,27.71
2017-05-31T10:47:30.482Z,27.75
2017-05-31T10:48:43.013Z,27.78
2017-05-31T10:49:55.259Z,27.63
2017-05-31T10:51:07.525Z,27.64
2017-05-31T10:52:19.494Z,27.53
2017-05-31T10:53:32.048Z,27.34
2017-05-31T10:54:44.322Z,27.2
2017-05-31T10:55:56.858Z,27.2
2017-05-31T10:57:08.828Z,27.26
2017-05-31T10:58:21.356Z,27.26
2017-05-31T10:59:33.594Z,27.35
2017-05-31T11:00:45.516Z,27.52
2017-05-31T11:01:58.087Z,27.48
2017-05-31T11:03:10.333Z,27.57
2017-05-31T11:04:22.862Z,27.44
2017-05-31T11:05:34.829Z,27.35
2017-05-31T11:06:47.367Z,27.07
2017-05-31T11:07:59.925Z,26.73
2017-05-31T11:09:12.147Z,26.52
2017-05-31T11:10:24.107Z,26.53
2017-05-31T11:11:36.355Z,26.55
2017-05-31T11:12:48.604Z,26.64
2017-05-31T11:14:00.853Z,26.97
2017-05-31T11:15:13.074Z,27.25
2017-05-31T11:16:25.046Z,27.41
2017-05-31T11:17:37.593Z,27.6
2017-05-31T11:18:49.330Z,27.72
2017-05-31T11:20:01.848Z,27.78
2017-05-31T11:21:14.421Z,27.76
2017-05-31T11:22:26.347Z,27.64
2017-05-31T11:23:38.894Z,27.47
2017-05-31T11:24:51.145Z,27.43
2017-05-31T11:26:03.680Z,27.48
2017-05-31T11:27:15.948Z,27.68
2017-05-31T11:28:27.930Z,27.81
2017-05-31T11:29:39.894Z,27.97
2017-05-31T11:30:52.161Z,28.25
2017-05-31T11:32:04.394Z,28.57
2017-05-31T11:33:16.356Z,28.74
2017-05-31T11:34:28.630Z,28.78
2017-05-31T11:35:40.573Z,28.74
2017-05-31T11:36:53.128Z,28.78
2017-05-31T11:38:05.678Z,28.82
2017-05-31T11:39:17.332Z,28.68
2017-05-31T11:40:29.915Z,28.67
2017-05-31T11:41:42.474Z,28.41
2017-05-31T11:42:54.707Z,28.2
2017-05-31T11:44:07.252Z,28.06
2017-05-31T11:45:19.822Z,27.98
2017-05-31T11:46:32.095Z,27.85
2017-05-31T11:47:44.064Z,27.86
2017-05-31T11:48:56.602Z,27.82
2017-05-31T11:50:08.573Z,27.61
2017-05-31T11:51:20.520Z,27.47
2017-05-31T11:52:33.063Z,27.5
2017-05-31T11:53:45.595Z,27.55
2017-05-31T11:54:57.539Z,27.76
2017-05-31T11:56:09.803Z,27.93
2017-05-31T11:57:22.082Z,28.12
2017-05-31T11:58:34.349Z,28.37
2017-05-31T11:59:46.891Z,28.57
2017-05-31T12:00:59.441Z,28.93
2017-05-31T12:02:12.007Z,29.39
2017-05-31T12:03:24.254Z,29.61
2017-05-31T12:04:36.210Z,29.84
2017-05-31T12:05:48.771Z,30.06
2017-05-31T12:07:01.296Z,30.11
2017-05-31T12:08:12.644Z,29.92
2017-05-31T12:09:24.605Z,29.89
2017-05-31T12:10:36.879Z,29.69
2017-05-31T12:11:49.098Z,29.69
2017-05-31T12:13:01.361Z,29.47
2017-05-31T12:14:13.625Z,29.34
2017-05-31T12:15:25.593Z,29.12
2017-05-31T12:16:37.859Z,28.94
2017-05-31T12:17:50.089Z,28.75
2017-05-31T12:19:02.337Z,28.71
2017-05-31T12:20:14.876Z,28.6
2017-05-31T12:21:27.417Z,28.62
2017-05-31T12:22:39.994Z,28.71
2017-05-31T12:23:52.259Z,28.84
2017-05-31T12:25:04.506Z,29.06
2017-05-31T12:26:17.048Z,29.28
2017-05-31T12:27:29.003Z,29.3
2017-05-31T12:28:40.665Z,29.32
2017-05-31T12:29:53.218Z,29.42
2017-05-31T12:31:05.763Z,29.44
2017-05-31T12:32:18.040Z,29.52
2017-05-31T12:33:30.578Z,29.4
2017-05-31T12:34:42.847Z,29.58
2017-05-31T12:35:54.776Z,29.44
2017-05-31T12:37:07.043Z,29.35
2017-05-31T12:38:19.585Z,29.16
2017-05-31T12:39:32.164Z,29.16
2017-05-31T12:40:44.407Z,29.18
2017-05-31T12:41:56.634Z,29.21
2017-05-31T12:43:08.598Z,29.32
2017-05-31T12:44:20.537Z,29.28
2017-05-31T12:45:32.787Z,29.3
2017-05-31T12:46:45.332Z,29.31
2017-05-31T12:47:57.578Z,29.24
2017-05-31T12:49:09.837Z,29.35
2017-05-31T12:50:21.791Z,29.53
2017-05-31T12:51:34.344Z,29.77
2017-05-31T12:52:46.612Z,29.9
2017-05-31T12:53:58.883Z,30.05
2017-05-31T12:55:11.111Z,30.43
2017-05-31T12:56:22.760Z,30.44
2017-05-31T12:57:35.345Z,30.69
2017-05-31T12:58:47.595Z,30.76
2017-05-31T12:59:59.820Z,30.89
2017-05-31T13:01:11.779Z,31.05
2017-05-31T13:02:24.310Z,31.08
2017-05-31T13:03:36.850Z,31.15
2017-05-31T13:04:49.393Z,31.28
2017-05-31T13:06:01.618Z,31.25
2017-05-31T13:07:13.863Z,31.47
2017-05-31T13:08:26.118Z,31.42
2017-05-31T13:09:38.676Z,31.54
2017-05-31T13:10:51.225Z,31.74
2017-05-31T13:12:03.151Z,31.67
2017-05-31T13:13:15.089Z,31.59
2017-05-31T13:14:27.339Z,31.54
2017-05-31T13:15:39.560Z,31.62
2017-05-31T13:16:52.129Z,31.5
2017-05-31T13:18:04.402Z,31.54
2017-05-31T13:19:16.945Z,31.57
2017-05-31T13:20:28.939Z,31.6
2017-05-31T13:21:40.875Z,31.52
2017-05-31T13:22:53.091Z,31.37
2017-05-31T13:24:05.656Z,31.29
2017-05-31T13:25:17.934Z,31.37
2017-05-31T13:26:30.521Z,31.33
2017-05-31T13:27:42.468Z,31.41
2017-05-31T13:28:54.714Z,31.57
2017-05-31T13:30:07.285Z,31.51
2017-05-31T13:31:19.841Z,31.55
2017-05-31T13:32:32.385Z,31.69
2017-05-31T13:33:44.945Z,31.78
2017-05-31T13:34:56.873Z,31.74
2017-05-31T13:36:09.112Z,31.77
2017-05-31T13:37:21.692Z,31.9
2017-05-31T13:38:33.946Z,31.87
2017-05-31T13:39:46.224Z,31.79
2017-05-31T13:40:58.482Z,31.7
2017-05-31T13:42:10.149Z,31.57
2017-05-31T13:43:22.415Z,31.52
2017-05-31T13:44:34.983Z,31.39
2017-05-31T13:45:47.212Z,31.35
2017-05-31T13:46:59.759Z,31.1
2017-05-31T13:48:12.320Z,30.99
2017-05-31T13:49:23.996Z,30.74
2017-05-31T13:50:36.591Z,30.51
2017-05-31T13:51:49.119Z,30.18
2017-05-31T13:53:01.383Z,30.13
2017-05-31T13:54:13.654Z,30.02
2017-05-31T13:55:25.897Z,29.87
2017-05-31T13:56:38.453Z,29.8
2017-05-31T13:57:50.722Z,29.77
2017-05-31T13:59:03.334Z,29.69
2017-05-31T14:00:15.580Z,29.59
2017-05-31T14:01:28.139Z,29.43
2017-05-31T14:02:40.680Z,29.31
2017-05-31T14:03:53.228Z,29.27
2017-05-31T14:05:05.795Z,29
2017-05-31T14:06:17.435Z,29.03
2017-05-31T14:07:29.688Z,29.18
2017-05-31T14:08:42.237Z,29.25
2017-05-31T14:09:54.476Z,29.16
2017-05-31T14:11:06.729Z,29.35
2017-05-31T14:12:19.016Z,29.46
2017-05-31T14:13:30.989Z,29.59
2017-05-31T14:14:43.257Z,29.74
2017-05-31T14:15:55.530Z,29.67
2017-05-31T14:17:08.072Z,29.64
2017-05-31T14:18:20.044Z,29.58
2017-05-31T14:19:32.596Z,29.68
2017-05-31T14:20:44.582Z,29.67
2017-05-31T14:21:57.130Z,29.81
2017-05-31T14:23:24.309Z,29.64
2017-05-31T14:24:36.584Z,29.62
2017-05-31T14:25:48.848Z,29.61
2017-05-31T14:27:01.368Z,29.68
2017-05-31T14:28:13.600Z,29.65
2017-05-31T14:29:26.134Z,29.76
2017-05-31T14:30:38.403Z,29.8
2017-05-31T14:31:50.355Z,29.94
2017-05-31T14:33:02.929Z,30.01
2017-05-31T14:34:15.496Z,29.94
2017-05-31T14:35:27.742Z,29.96
2017-05-31T14:36:39.714Z,29.94
2017-05-31T14:37:52.291Z,29.98
2017-05-31T14:39:04.561Z,29.8
2017-05-31T14:40:16.802Z,29.65
2017-05-31T14:41:29.044Z,29.73
2017-05-31T14:42:41.593Z,29.64
2017-05-31T14:43:53.864Z,29.71
2017-05-31T14:45:05.814Z,29.62
2017-05-31T14:46:17.785Z,29.49
2017-05-31T14:47:30.045Z,29.37
2017-05-31T14:48:42.301Z,29.2
2017-05-31T14:49:54.262Z,28.93
2017-05-31T14:51:06.790Z,28.67
2017-05-31T14:52:19.053Z,28.31
2017-05-31T14:53:30.974Z,28.03
2017-05-31T14:54:43.195Z,27.73
2017-05-31T14:55:55.740Z,27.44
2017-05-31T14:57:08.275Z,27.22
2017-05-31T14:58:20.240Z,26.89
2017-05-31T14:59:32.766Z,26.55
2017-05-31T15:00:45.314Z,26.33
2017-05-31T15:01:58.125Z,26.07
2017-05-31T15:03:10.374Z,25.92
2017-05-31T15:04:21.714Z,25.63
2017-05-31T15:05:34.270Z,25.56
2017-05-31T15:06:46.841Z,25.4
2017-05-31T15:07:59.412Z,25.18
2017-05-31T15:09:11.649Z,25.09
2017-05-31T15:10:23.595Z,24.92
2017-05-31T15:11:35.820Z,24.78
2017-05-31T15:12:48.063Z,24.71
2017-05-31T15:14:00.283Z,24.53
2017-05-31T15:15:12.555Z,24.44
2017-05-31T15:16:24.803Z,24.38
2017-05-31T15:17:37.050Z,24.37
2017-05-31T15:18:49.618Z,24.24
2017-05-31T15:20:02.146Z,24.24
2017-05-31T15:21:14.665Z,24.1
2017-05-31T15:22:26.878Z,24.16
2017-05-31T15:23:39.152Z,24.07
2017-05-31T15:24:51.393Z,23.96
2017-05-31T15:26:03.640Z,23.91
2017-05-31T15:27:14.967Z,23.89
2017-05-31T15:28:27.194Z,23.89
2017-05-31T15:29:39.435Z,23.79
2017-05-31T15:30:51.931Z,23.85
2017-05-31T15:32:04.170Z,23.74
2017-05-31T15:33:16.397Z,23.73
2017-05-31T15:34:28.912Z,23.69
2017-05-31T15:35:41.431Z,23.67